»·PEaware :: N2822D KVCB-KRNM

N2822D :: KVCB-KRNM

FLIGHT INFORMATION

Flight Status: Arrived
Operator: Privately registered:
United States
More flights under this callsign
Pilot: Keith B. (30325)
Aircraft: BEECH AIRCRAFT BARON
(BE58)
More flights by this aircraft type
Origin: KVCB Nut Tree
United States
Destination: KRNM Ramona
United States
More flights between these airports :: More routes between these airports
Route: KVCB KEDU SAC GIFME RBLEW PXN AVE GMN JEFFY DODGR SLI DANAH VPSMP VPOCN OCN BONDO KRNM
File this flight plan on PilotEdge
Remarks:
Altitude:
(Current/Filed)
11,500ft
Speed:
(Current/Filed)
200kts
Departed: 12-Nov-20 08:05 AM
Arrived: 12-Nov-20 10:09 AM
Distance/Time
Traveled:
404nm/2:03
Distance/Time
To Go:
Arrived

Flight Plot

Page will automatically refresh every two minutes.

Flight plan parsing failed; only flown route is shown


Map Options




Map Legend


Flown Route
Filed Route
Departure Airport
Arrival Airport
Navaid (VOR, NDB)
Fix

Horizontal Profiles

Position Reports

Time Latitude Longitude Heading Altitude Ground
Speed
12-Nov-20 08:03 38.392892 -121.554599 201 5500ft 199kts
12-Nov-20 08:04 38.337437 -121.566757 185 5490ft 207kts
12-Nov-20 08:06 38.280309 -121.574760 186 5482ft 207kts
12-Nov-20 08:07 38.223006 -121.582964 186 5477ft 208kts
12-Nov-20 08:08 38.165727 -121.578891 163 5462ft 208kts
12-Nov-20 08:09 38.109323 -121.562494 168 5456ft 208kts
12-Nov-20 08:10 38.052598 -121.548063 168 5450ft 208kts
12-Nov-20 08:11 37.995966 -121.533501 168 5445ft 208kts
12-Nov-20 08:12 37.939099 -121.518899 168 5438ft 208kts
12-Nov-20 08:13 37.883095 -121.502069 154 5510ft 205kts
12-Nov-20 08:14 37.832628 -121.467457 153 5510ft 207kts
12-Nov-20 08:15 37.780796 -121.435094 153 5506ft 208kts
12-Nov-20 08:16 37.728976 -121.402652 153 5502ft 208kts
12-Nov-20 08:17 37.676971 -121.370151 153 5494ft 208kts
12-Nov-20 08:18 37.625096 -121.337772 153 5521ft 207kts
12-Nov-20 08:19 37.573399 -121.305584 153 5510ft 208kts
12-Nov-20 08:20 37.521589 -121.273343 153 5505ft 208kts
12-Nov-20 08:21 37.469669 -121.241108 153 5499ft 208kts
12-Nov-20 08:22 37.418265 -121.208188 153 5491ft 208kts
12-Nov-20 08:22 37.374998 -121.181444 153 5490ft 207kts
12-Nov-20 08:24 37.314644 -121.144125 153 5480ft 207kts
12-Nov-20 08:24 37.271516 -121.117523 153 5474ft 208kts
12-Nov-20 08:26 37.210935 -121.080159 153 5469ft 208kts
12-Nov-20 08:27 37.158947 -121.048188 153 5462ft 208kts
12-Nov-20 08:27 37.115559 -121.021521 153 5459ft 208kts
12-Nov-20 08:28 37.063638 -120.989646 153 5450ft 208kts
12-Nov-20 08:29 37.011391 -120.957664 154 5457ft 209kts
12-Nov-20 08:30 36.959175 -120.925709 154 5449ft 209kts
12-Nov-20 08:31 36.906753 -120.894268 154 5447ft 209kts
12-Nov-20 08:32 36.854908 -120.862687 154 5530ft 208kts
12-Nov-20 08:33 36.802783 -120.830960 153 5513ft 209kts
12-Nov-20 08:34 36.750449 -120.799127 153 5509ft 209kts
12-Nov-20 08:35 36.698661 -120.766152 146 5501ft 209kts
12-Nov-20 08:36 36.649608 -120.727744 148 5527ft 206kts
12-Nov-20 08:37 36.601308 -120.691108 148 5800ft 201kts
12-Nov-20 08:38 36.553497 -120.654854 148 6053ft 201kts
12-Nov-20 08:39 36.505613 -120.618641 148 6298ft 202kts
12-Nov-20 08:40 36.457431 -120.582226 148 6515ft 203kts
12-Nov-20 08:41 36.409035 -120.545691 148 6697ft 204kts
12-Nov-20 08:42 36.360249 -120.508964 148 6848ft 205kts
12-Nov-20 08:43 36.311314 -120.472133 148 6964ft 207kts
12-Nov-20 08:44 36.261861 -120.434989 148 7048ft 208kts
12-Nov-20 08:45 36.212197 -120.397998 148 7098ft 210kts
12-Nov-20 08:46 36.161923 -120.360351 148 7112ft 212kts
12-Nov-20 08:47 36.111585 -120.322721 149 7240ft 210kts
12-Nov-20 08:48 36.061531 -120.285335 149 7414ft 210kts
12-Nov-20 08:49 36.011388 -120.247931 149 7569ft 211kts
12-Nov-20 08:50 35.961131 -120.210154 149 7686ft 212kts
12-Nov-20 08:51 35.910566 -120.172560 150 7809ft 210kts
12-Nov-20 08:52 35.861766 -120.136285 150 8395ft 197kts
12-Nov-20 08:53 35.815676 -120.102144 150 9048ft 191kts
12-Nov-20 08:54 35.770400 -120.068621 150 9673ft 189kts
12-Nov-20 08:55 35.724937 -120.035050 150 10132ft 192kts
12-Nov-20 08:56 35.679202 -120.001284 151 10547ft 192kts
12-Nov-20 08:57 35.635297 -119.965003 132 11050ft 190kts
12-Nov-20 08:58 35.600877 -119.915197 132 11477ft 195kts
12-Nov-20 08:59 35.562951 -119.864418 132 11488ft 206kts
12-Nov-20 09:00 35.524264 -119.812497 132 11492ft 206kts
12-Nov-20 09:01 35.485531 -119.760565 132 11494ft 205kts
12-Nov-20 09:02 35.447128 -119.709216 132 11492ft 204kts
12-Nov-20 09:03 35.408634 -119.657758 132 11493ft 204kts
12-Nov-20 09:04 35.370123 -119.606399 132 11490ft 205kts
12-Nov-20 09:05 35.331486 -119.554910 132 11474ft 205kts
12-Nov-20 09:06 35.292879 -119.503591 132 11469ft 205kts
12-Nov-20 09:07 35.254263 -119.452287 132 11466ft 205kts
12-Nov-20 09:08 35.215603 -119.401044 132 11461ft 205kts
12-Nov-20 09:09 35.176939 -119.349834 132 11455ft 205kts
12-Nov-20 09:10 35.138383 -119.298887 132 11504ft 204kts
12-Nov-20 09:11 35.099758 -119.247891 132 11498ft 205kts
12-Nov-20 09:12 35.060985 -119.196791 132 11496ft 205kts
12-Nov-20 09:13 35.022251 -119.145812 132 11489ft 205kts
12-Nov-20 09:14 34.983340 -119.094687 132 11482ft 205kts
12-Nov-20 09:15 34.944500 -119.043724 132 11480ft 205kts
12-Nov-20 09:16 34.905587 -118.992733 132 11472ft 205kts
12-Nov-20 09:17 34.866914 -118.942146 132 11529ft 204kts
12-Nov-20 09:18 34.828037 -118.891364 132 11523ft 205kts
12-Nov-20 09:19 34.795409 -118.835700 102 11510ft 205kts
12-Nov-20 09:20 34.784413 -118.767704 105 11509ft 205kts
12-Nov-20 09:21 34.769796 -118.700442 104 11506ft 205kts
12-Nov-20 09:22 34.755365 -118.633074 104 11493ft 206kts
12-Nov-20 09:23 34.725144 -118.578572 158 11507ft 204kts
12-Nov-20 09:24 34.671526 -118.556757 154 11509ft 205kts
12-Nov-20 09:25 34.619830 -118.526917 154 11495ft 205kts
12-Nov-20 09:26 34.568093 -118.497578 154 11491ft 205kts
12-Nov-20 09:27 34.516133 -118.468381 154 11484ft 205kts
12-Nov-20 09:28 34.464472 -118.439154 154 11482ft 205kts
12-Nov-20 09:29 34.412587 -118.409640 154 11474ft 206kts
12-Nov-20 09:30 34.360809 -118.380433 154 11461ft 206kts
12-Nov-20 09:31 34.308874 -118.351160 154 11443ft 206kts
12-Nov-20 09:32 34.258264 -118.322665 155 11462ft 205kts
12-Nov-20 09:33 34.208236 -118.294560 154 11446ft 206kts
12-Nov-20 09:34 34.157814 -118.266252 154 11444ft 208kts
12-Nov-20 09:35 34.105647 -118.236995 155 11439ft 210kts
12-Nov-20 09:36 34.053327 -118.207720 155 11436ft 212kts
12-Nov-20 09:37 33.999844 -118.177122 155 11436ft 214kts
12-Nov-20 09:38 33.945412 -118.146757 156 11421ft 216kts
12-Nov-20 09:39 33.891092 -118.115786 156 11465ft 215kts
12-Nov-20 09:40 33.836905 -118.084608 157 11498ft 216kts
12-Nov-20 09:41 33.782582 -118.053321 154 11498ft 218kts
12-Nov-20 09:42 33.739501 -118.001420 136 11486ft 221kts
12-Nov-20 09:43 33.695517 -117.949712 137 11475ft 221kts
12-Nov-20 09:44 33.651183 -117.898357 137 11356ft 220kts
12-Nov-20 09:45 33.608152 -117.847614 136 10857ft 214kts
12-Nov-20 09:46 33.565958 -117.797945 135 10349ft 210kts
12-Nov-20 09:47 33.524754 -117.749493 134 9811ft 204kts
12-Nov-20 09:48 33.484628 -117.702421 135 9244ft 201kts
12-Nov-20 09:49 33.439525 -117.663432 145 8651ft 199kts
12-Nov-20 09:50 33.393984 -117.625372 144 8038ft 200kts
12-Nov-20 09:51 33.352191 -117.581981 132 7383ft 200kts
12-Nov-20 09:52 33.313599 -117.534462 134 6693ft 199kts
12-Nov-20 09:53 33.274183 -117.487849 135 5970ft 199kts
12-Nov-20 09:54 33.237975 -117.439577 110 5450ft 187kts
12-Nov-20 09:55 33.237108 -117.380812 95 5452ft 173kts
12-Nov-20 09:56 33.230573 -117.324821 98 5504ft 166kts
12-Nov-20 09:57 33.224092 -117.269816 98 5505ft 167kts
12-Nov-20 09:58 33.217554 -117.214721 98 5501ft 168kts
12-Nov-20 09:59 33.210833 -117.158097 98 5296ft 175kts
12-Nov-20 10:00 33.203873 -117.099792 98 5046ft 178kts
12-Nov-20 10:01 33.196810 -117.041050 98 4769ft 179kts
12-Nov-20 10:02 33.163785 -117.000912 158 4383ft 182kts
12-Nov-20 10:04 33.119233 -116.971946 148 3934ft 183kts
12-Nov-20 10:05 33.077559 -116.942021 151 3031ft 161kts
12-Nov-20 10:06 33.055971 -116.910960 94 2486ft 123kts
12-Nov-20 10:07 33.049519 -116.874497 175 2392ft 101kts
12-Nov-20 10:08 33.036290 -116.896100 280 1648ft 94kts
12-Nov-20 10:09 33.039681 -116.918769 280 1387ft 31kts
12-Nov-20 10:10 33.040451 -116.919836 58 1387ft 5kts
12-Nov-20 10:11 33.040079 -116.916844 99 1389ft 10kts
12-Nov-20 10:12 33.039336 -116.911696 98 1395ft 15kts
12-Nov-20 10:13 33.038615 -116.907493 165 1398ft 2kts
12-Nov-20 10:14 33.037225 -116.907705 264 1394ft 15kts
12-Nov-20 10:15 33.037055 -116.909634 187 1396ft 0kts
12-Nov-20 10:16 33.037089 -116.909629 187 1396ft 0kts
12-Nov-20 10:17 33.037102 -116.909627 187 1396ft 0kts
12-Nov-20 10:18 33.037102 -116.909627 187 1396ft 0kts

Navigation Log

Ident Type
Flight plan parsing failed, navigation log unavailable